Time;durP1;ratioP1;P1;durP2;ratioP2;P2;SDS_P1;SDS_P2;PMS_P1;PMS_P2;Temp;Humidity;BMP_temperature;BMP_pressure;BME280_temperature;BME280_humidity;BME280_pressure;Samples;Min_cycle;Max_cycle;Signal;HPM_P1;HPM_P2
2024/02/26 00:02:15;;;;;;;61.90;23.88;;;;;;;29.20;70.47;101247.16;5043416;28;69725;-31
2024/02/26 00:04:46;;;;;;;42.65;21.48;;;;;;;29.12;70.64;101245.47;5053317;28;66645;-30
2024/02/26 00:07:17;;;;;;;40.80;20.85;;;;;;;29.14;69.08;101244.22;5053099;28;70808;-30
2024/02/26 00:09:47;;;;;;;41.58;21.92;;;;;;;29.13;69.15;101241.72;5053193;28;66949;-31
2024/02/26 00:12:18;;;;;;;41.10;20.45;;;;;;;29.15;69.55;101250.47;5046234;28;70243;-30
2024/02/26 00:14:49;;;;;;;47.92;20.85;;;;;;;29.15;69.98;101251.28;5058306;28;66395;-31
2024/02/26 00:17:20;;;;;;;43.22;20.63;;;;;;;29.15;70.99;101262.09;5050789;28;69226;-32
2024/02/26 00:19:50;;;;;;;38.78;18.85;;;;;;;29.21;71.60;101265.88;5052977;28;66329;-30
2024/02/26 00:22:22;;;;;;;41.63;19.92;;;;;;;29.23;71.00;101263.81;5042456;28;69707;-30
2024/02/26 00:24:52;;;;;;;42.13;17.67;;;;;;;29.28;70.04;101265.91;5052841;28;66282;-31
2024/02/26 00:27:23;;;;;;;40.55;18.20;;;;;;;29.30;70.07;101264.66;5050475;28;70655;-30
2024/02/26 00:29:54;;;;;;;35.05;17.38;;;;;;;29.38;70.05;101272.59;5052515;28;66478;-31
2024/02/26 00:32:25;;;;;;;29.50;16.88;;;;;;;29.42;69.39;101266.78;5047843;28;70517;-30
2024/02/26 00:34:55;;;;;;;41.80;17.35;;;;;;;29.43;69.51;101265.78;5046250;28;66696;-30
2024/02/26 00:37:26;;;;;;;28.50;16.40;;;;;;;29.45;69.42;101277.19;5054279;28;69944;-30
2024/02/26 00:39:56;;;;;;;32.38;16.27;;;;;;;29.46;69.81;101268.91;5040868;28;65183;-30
2024/02/26 00:42:27;;;;;;;26.17;16.67;;;;;;;29.47;70.13;101269.72;5039156;28;69941;-33
2024/02/26 00:44:58;;;;;;;22.67;15.50;;;;;;;29.51;69.53;101276.41;5052709;28;66380;-30
2024/02/26 00:47:29;;;;;;;29.90;16.67;;;;;;;29.51;70.01;101276.41;5041043;28;70840;-32
2024/02/26 00:49:59;;;;;;;25.88;15.63;;;;;;;29.53;69.64;101285.13;5055852;28;66045;-31
2024/02/26 00:52:30;;;;;;;21.10;15.82;;;;;;;29.50;69.30;101277.44;5045039;28;70083;-31
2024/02/26 00:55:03;;;;;;;20.58;14.68;;;;;;;29.56;69.87;101290.13;5045395;28;66392;-31
2024/02/26 00:57:33;;;;;;;37.00;16.02;;;;;;;29.58;69.61;101288.06;5046583;28;70043;-31
2024/02/26 01:00:05;;;;;;;23.80;15.18;;;;;;;29.60;70.01;101297.66;5059472;28;66338;-32
2024/02/26 01:02:36;;;;;;;26.73;15.50;;;;;;;29.57;69.89;101294.53;5044036;28;70188;-31
2024/02/26 01:05:09;;;;;;;24.08;15.10;;;;;;;29.50;69.84;101280.97;5041649;28;66307;-32
2024/02/26 01:07:40;;;;;;;21.30;14.13;;;;;;;29.65;70.13;101305.19;5042292;28;70053;-31
2024/02/26 01:10:11;;;;;;;22.30;14.33;;;;;;;29.68;69.93;101314.78;5052020;28;66196;-33
2024/02/26 01:12:41;;;;;;;26.33;15.07;;;;;;;29.68;70.17;101315.59;5058062;28;70268;-32
2024/02/26 01:15:12;;;;;;;23.67;14.13;;;;;;;29.71;69.38;101312.50;5052442;28;65862;-34
2024/02/26 01:17:44;;;;;;;26.67;15.02;;;;;;;29.72;69.59;101322.25;5044923;28;69996;-31
2024/02/26 01:20:14;;;;;;;18.77;14.48;;;;;;;29.74;69.95;101320.19;5045791;28;65818;-31
2024/02/26 01:22:45;;;;;;;23.13;14.50;;;;;;;29.75;69.60;101321.03;5056483;28;70383;-31
2024/02/26 01:25:15;;;;;;;22.98;13.60;;;;;;;29.77;69.30;101319.78;5050700;28;65940;-31
2024/02/26 01:27:46;;;;;;;23.88;14.38;;;;;;;29.75;69.38;101311.03;5053087;28;70554;-31
2024/02/26 01:30:17;;;;;;;23.60;14.68;;;;;;;29.78;69.42;101329.59;5060126;28;65357;-30
2024/02/26 01:32:48;;;;;;;17.38;13.07;;;;;;;29.81;69.08;101331.88;5059513;28;71048;-30
2024/02/26 01:35:19;;;;;;;23.15;14.15;;;;;;;29.82;69.41;101338.94;5057159;28;66350;-31
2024/02/26 01:37:50;;;;;;;18.27;13.85;;;;;;;29.81;69.10;101326.47;5052800;28;70467;-30
2024/02/26 01:40:21;;;;;;;22.80;14.15;;;;;;;29.85;69.31;101326.91;5052486;28;67404;-31
2024/02/26 01:42:53;;;;;;;17.58;13.55;;;;;;;29.83;68.99;101329.78;5059203;28;70511;-31
2024/02/26 01:45:24;;;;;;;21.42;13.68;;;;;;;29.90;68.89;101337.13;5059527;28;66598;-31
2024/02/26 01:47:57;;;;;;;23.00;13.43;;;;;;;29.87;68.69;101322.13;5058889;28;69941;-30
2024/02/26 01:50:28;;;;;;;19.33;14.18;;;;;;;29.90;68.54;101334.41;5056719;28;65865;-31
2024/02/26 01:52:59;;;;;;;22.25;14.30;;;;;;;29.91;69.06;101331.50;5055600;28;70224;-31
2024/02/26 01:55:30;;;;;;;18.05;13.88;;;;;;;29.99;68.62;101344.00;5050445;27;67028;-31
2024/02/26 01:58:01;;;;;;;21.27;13.95;;;;;;;30.00;68.62;101345.66;5058759;28;70574;-31
2024/02/26 02:00:32;;;;;;;17.75;13.57;;;;;;;30.01;68.48;101352.75;5048235;28;65313;-32
2024/02/26 02:03:05;;;;;;;16.27;13.43;;;;;;;30.02;68.25;101343.59;5048598;28;70179;-31
2024/02/26 02:05:41;;;;;;;17.40;12.88;;;;;;;29.88;68.52;101320.25;5048642;28;66168;-31
2024/02/26 02:08:16;;;;;;;19.80;13.32;;;;;;;29.83;67.96;101307.31;5046000;28;70560;-31
2024/02/26 02:10:49;;;;;;;20.42;13.73;;;;;;;30.11;68.61;101346.94;5048062;28;65295;-31
2024/02/26 02:13:19;;;;;;;20.65;12.90;;;;;;;30.12;68.51;101346.75;5047359;28;69602;-31
2024/02/26 02:15:50;;;;;;;19.30;14.38;;;;;;;30.14;68.00;101341.13;5052304;28;66234;-30
2024/02/26 02:18:20;;;;;;;18.65;13.32;;;;;;;30.18;68.18;101348.63;5051027;28;68122;-32
2024/02/26 02:20:51;;;;;;;22.00;12.50;;;;;;;30.10;68.44;101329.06;5057809;28;66262;-31
2024/02/26 02:23:22;;;;;;;18.38;13.25;;;;;;;30.22;68.26;101349.91;5048124;28;69423;-31
2024/02/26 02:25:55;;;;;;;18.63;13.13;;;;;;;30.25;68.06;101349.50;5047985;28;66170;-31
2024/02/26 02:28:27;;;;;;;16.77;12.93;;;;;;;30.28;67.91;101343.69;5045151;28;69912;-31
2024/02/26 02:30:59;;;;;;;16.77;13.15;;;;;;;30.31;68.13;101338.91;5046054;28;66430;-30
2024/02/26 02:33:30;;;;;;;16.27;13.10;;;;;;;30.34;68.10;101341.19;5047313;28;70273;-31
2024/02/26 02:36:01;;;;;;;14.97;12.63;;;;;;;30.36;67.48;101339.13;5046032;28;66409;-31
2024/02/26 02:38:33;;;;;;;18.30;12.63;;;;;;;30.41;67.99;101342.88;5047156;28;70384;-31
2024/02/26 02:41:05;;;;;;;15.60;11.50;;;;;;;30.43;67.60;101337.28;5044680;28;65938;-31
2024/02/26 02:43:35;;;;;;;16.47;12.00;;;;;;;30.46;67.24;101339.56;5043682;28;70204;-31
2024/02/26 02:46:07;;;;;;;14.80;12.23;;;;;;;30.50;67.79;101335.38;5049046;28;66841;-30
2024/02/26 02:48:38;;;;;;;12.70;11.32;;;;;;;30.53;67.55;101336.84;5052801;28;70180;-31
2024/02/26 02:51:09;;;;;;;16.10;11.90;;;;;;;30.57;67.26;101330.81;5057351;28;66040;-31
2024/02/26 02:53:39;;;;;;;14.52;11.98;;;;;;;30.59;67.06;101331.47;5048323;28;71629;-32
2024/02/26 02:56:10;;;;;;;19.52;12.40;;;;;;;30.63;67.17;101323.75;5047544;28;66337;-35
2024/02/26 02:58:41;;;;;;;17.90;13.23;;;;;;;30.66;66.90;101315.19;5046471;28;70391;-31
2024/02/26 03:01:13;;;;;;;13.43;11.23;;;;;;;30.67;67.37;101320.41;5046700;28;66638;-32
2024/02/26 03:03:44;;;;;;;16.20;11.77;;;;;;;30.67;66.82;101320.41;5045241;28;69331;-30
2024/02/26 03:06:15;;;;;;;13.90;11.95;;;;;;;30.72;67.09;101323.31;5048143;28;67518;-31
2024/02/26 03:08:46;;;;;;;16.65;12.48;;;;;;;30.77;66.99;101325.41;5042959;28;70083;-30
2024/02/26 03:11:17;;;;;;;18.45;12.15;;;;;;;30.79;67.02;101315.19;5047482;28;66202;-31
2024/02/26 03:13:47;;;;;;;17.58;12.27;;;;;;;30.85;67.05;101318.97;5056363;28;70678;-31
2024/02/26 03:16:18;;;;;;;13.18;11.77;;;;;;;30.87;66.37;101319.56;5055026;28;66735;-31
2024/02/26 03:18:49;;;;;;;17.48;12.13;;;;;;;30.90;66.64;101309.19;5053274;28;70686;-31
2024/02/26 03:21:20;;;;;;;13.05;11.20;;;;;;;30.93;66.69;101307.94;5054353;28;65979;-32
2024/02/26 03:23:51;;;;;;;14.10;11.90;;;;;;;30.94;66.25;101290.63;5042781;28;69853;-31
2024/02/26 03:26:21;;;;;;;15.95;11.60;;;;;;;30.97;66.13;101292.91;5030437;28;66483;-31
2024/02/26 03:28:52;;;;;;;16.23;11.77;;;;;;;30.99;65.85;101296.25;5048229;28;70080;-31
2024/02/26 03:31:24;;;;;;;11.23;10.07;;;;;;;31.04;65.88;101296.44;5053545;28;67462;-32
2024/02/26 03:33:54;;;;;;;12.95;11.50;;;;;;;31.07;66.27;101287.88;5055383;28;71310;-31
2024/02/26 03:36:25;;;;;;;12.15;10.80;;;;;;;31.10;65.62;101289.34;5054154;28;66785;-35
2024/02/26 03:38:56;;;;;;;13.88;11.65;;;;;;;31.11;65.54;101278.28;5049147;28;71354;-32
2024/02/26 03:41:27;;;;;;;11.93;10.80;;;;;;;31.15;65.57;101274.13;5054584;28;66549;-32
2024/02/26 03:43:58;;;;;;;16.88;10.98;;;;;;;31.17;65.72;101271.16;5053360;28;70145;-31
2024/02/26 03:46:28;;;;;;;16.00;11.52;;;;;;;31.23;65.65;101264.06;5057684;28;66682;-34
2024/02/26 03:48:59;;;;;;;11.63;10.48;;;;;;;31.25;65.72;101256.56;5045410;28;70267;-32
2024/02/26 03:51:31;;;;;;;12.38;11.15;;;;;;;31.28;65.54;101256.13;5048180;28;66396;-33
2024/02/26 03:54:02;;;;;;;12.65;10.45;;;;;;;31.12;65.78;101230.31;5057599;28;69605;-32
2024/02/26 03:56:33;;;;;;;15.88;10.55;;;;;;;31.33;65.82;101259.03;5060903;28;65386;-31
2024/02/26 03:59:03;;;;;;;11.52;10.38;;;;;;;31.31;65.41;101239.44;5049227;28;70064;-32
2024/02/26 04:01:34;;;;;;;13.73;10.73;;;;;;;31.40;65.54;101249.03;5048528;28;66299;-33
2024/02/26 04:04:05;;;;;;;12.00;10.75;;;;;;;31.43;65.03;101243.19;5045712;28;69902;-31
2024/02/26 04:06:36;;;;;;;12.77;10.77;;;;;;;31.44;65.33;101244.84;5043808;28;65218;-32
2024/02/26 04:09:07;;;;;;;12.48;10.50;;;;;;;31.47;65.22;101230.84;5046629;28;70455;-31
2024/02/26 04:11:38;;;;;;;12.48;11.02;;;;;;;31.52;65.36;101222.91;5047653;28;66740;-31
2024/02/26 04:14:11;;;;;;;12.18;11.00;;;;;;;31.54;65.16;101218.09;5044851;28;70455;-33
2024/02/26 04:16:42;;;;;;;13.77;10.55;;;;;;;31.57;65.22;101211.41;5051208;27;66550;-35
2024/02/26 04:19:12;;;;;;;15.68;10.45;;;;;;;31.59;64.84;101207.44;5051237;28;70450;-32
2024/02/26 04:21:43;;;;;;;12.23;10.98;;;;;;;31.65;65.11;101207.59;5051256;28;65798;-33
2024/02/26 04:24:14;;;;;;;12.63;10.10;;;;;;;31.63;64.96;101201.59;5059553;28;70908;-34
2024/02/26 04:26:46;;;;;;;11.40;10.20;;;;;;;31.66;64.76;101198.44;5056532;28;66678;-32
2024/02/26 04:29:17;;;;;;;;;;;;;;;31.67;64.98;101197.38;5055380;28;70922;-32
2024/02/26 04:31:47;;;;;;;11.35;10.20;;;;;;;31.76;65.05;101187.91;5059370;28;66648;-32
2024/02/26 04:34:18;;;;;;;14.38;10.10;;;;;;;31.78;64.67;101180.38;5059736;28;70860;-32
2024/02/26 04:36:49;;;;;;;15.53;10.50;;;;;;;31.80;64.46;101168.28;5041153;28;66426;-31
2024/02/26 04:39:20;;;;;;;11.02;9.95;;;;;;;31.85;64.25;101164.91;5051275;28;69799;-33
2024/02/26 04:41:51;;;;;;;11.63;10.07;;;;;;;31.83;64.44;101156.97;5057386;28;65533;-32
2024/02/26 04:44:22;;;;;;;11.38;9.77;;;;;;;31.89;64.43;101160.69;5052817;28;70361;-31
2024/02/26 04:46:52;;;;;;;10.30;9.30;;;;;;;31.90;64.50;101142.53;5050843;28;66509;-32
2024/02/26 04:49:23;;;;;;;14.00;9.35;;;;;;;31.93;64.46;101145.69;5044726;28;69620;-32
2024/02/26 04:51:54;;;;;;;10.30;9.32;;;;;;;31.90;64.01;101135.25;5050864;28;66521;-32
2024/02/26 04:54:25;;;;;;;9.95;9.05;;;;;;;31.96;64.03;101131.66;5048372;28;70244;-32
2024/02/26 04:56:56;;;;;;;10.10;9.13;;;;;;;32.01;64.34;101126.41;5054149;28;65953;-33
2024/02/26 04:59:26;;;;;;;10.80;9.73;;;;;;;32.00;64.15;101111.16;5045208;28;70059;-31
2024/02/26 05:01:57;;;;;;;10.82;9.77;;;;;;;32.07;63.80;101108.41;5048053;28;65953;-32
2024/02/26 05:04:28;;;;;;;10.65;9.50;;;;;;;32.10;63.74;101107.13;5048270;28;70254;-32
2024/02/26 05:06:59;;;;;;;12.03;10.00;;;;;;;32.09;63.70;101089.19;5044222;28;67202;-32
2024/02/26 05:09:30;;;;;;;10.90;9.93;;;;;;;32.11;63.62;101087.91;5044957;28;71498;-31
2024/02/26 05:12:01;;;;;;;10.15;8.90;;;;;;;32.11;63.56;101081.66;5054599;28;66077;-31
2024/02/26 05:14:32;;;;;;;10.03;9.13;;;;;;;32.19;63.41;101078.66;5058569;28;70375;-31
2024/02/26 05:17:03;;;;;;;9.40;8.40;;;;;;;32.23;63.31;101079.84;5055951;28;66666;-31
2024/02/26 05:19:34;;;;;;;11.17;9.43;;;;;;;32.23;63.35;101058.13;5057990;28;70097;-31
2024/02/26 05:22:04;;;;;;;13.05;9.48;;;;;;;32.23;63.11;101053.56;5052820;28;66049;-31
2024/02/26 05:24:38;;;;;;;9.52;8.65;;;;;;;32.25;62.85;101056.03;5054731;28;70147;-31
2024/02/26 05:27:09;;;;;;;9.65;8.85;;;;;;;32.33;63.00;101052.19;5048972;28;65710;-34
2024/02/26 05:29:40;;;;;;;9.65;8.82;;;;;;;32.36;63.05;101041.69;5051079;28;70094;-33
2024/02/26 05:32:10;;;;;;;9.25;8.35;;;;;;;32.38;62.64;101041.50;5054818;28;65797;-31
2024/02/26 05:34:41;;;;;;;9.60;8.75;;;;;;;32.40;63.11;101020.34;5042695;28;68767;-31
2024/02/26 05:37:12;;;;;;;9.48;8.68;;;;;;;32.45;62.84;101024.03;5045097;28;65331;-32
2024/02/26 05:39:43;;;;;;;9.57;8.68;;;;;;;32.48;62.93;101020.06;5056133;28;69611;-31
2024/02/26 05:42:14;;;;;;;11.13;9.23;;;;;;;32.49;62.53;101010.88;5039876;28;65093;-32
2024/02/26 05:44:45;;;;;;;8.68;7.97;;;;;;;32.55;62.62;101001.00;5043547;28;70124;-33
2024/02/26 05:47:17;;;;;;;9.48;8.57;;;;;;;32.53;62.58;100997.66;5046314;28;66245;-32
2024/02/26 05:49:50;;;;;;;8.80;8.05;;;;;;;32.61;62.25;101005.50;5046788;28;71035;-31
2024/02/26 05:52:21;;;;;;;9.73;8.57;;;;;;;32.62;62.41;100999.00;5047865;28;66647;-33
2024/02/26 05:54:55;;;;;;;8.75;8.15;;;;;;;32.57;62.40;100982.56;5044192;28;69858;-31
2024/02/26 05:57:25;;;;;;;9.55;8.85;;;;;;;32.69;62.22;100983.47;5050557;28;66080;-31
2024/02/26 05:59:56;;;;;;;9.57;8.73;;;;;;;32.72;62.35;100988.44;5054542;28;69235;-31
2024/02/26 06:02:27;;;;;;;8.52;7.82;;;;;;;32.74;62.23;100967.31;5039499;28;66697;-32
2024/02/26 06:04:59;;;;;;;8.20;7.50;;;;;;;32.73;62.35;100954.75;5054642;28;69774;-33
2024/02/26 06:07:30;;;;;;;8.65;7.95;;;;;;;32.78;61.98;100943.22;5042070;28;66701;-31
2024/02/26 06:10:02;;;;;;;10.07;8.20;;;;;;;32.78;62.10;100946.75;5042837;28;69286;-32
2024/02/26 06:12:36;;;;;;;9.80;8.13;;;;;;;32.87;61.97;100948.06;5059592;28;66135;-32
2024/02/26 06:15:09;;;;;;;8.35;7.80;;;;;;;32.92;61.96;100936.50;5053875;28;69658;-31
2024/02/26 06:17:40;;;;;;;7.75;6.97;;;;;;;32.96;61.90;100943.16;5047813;28;66320;-30
2024/02/26 06:20:12;;;;;;;7.82;7.20;;;;;;;32.98;61.69;100941.00;5053795;28;70086;-31
2024/02/26 06:22:43;;;;;;;8.13;7.32;;;;;;;33.04;61.68;100931.13;5067560;28;66331;-33
2024/02/26 06:25:14;;;;;;;7.78;7.18;;;;;;;33.00;61.99;100910.94;5057362;28;70892;-35
2024/02/26 06:27:45;;;;;;;8.38;7.68;;;;;;;33.06;61.55;100915.41;5061390;28;66114;-31
2024/02/26 06:30:15;;;;;;;7.93;7.30;;;;;;;33.02;61.53;100900.66;5058823;28;70602;-31
2024/02/26 06:32:46;;;;;;;8.73;6.63;;;;;;;33.14;61.72;100912.34;5057660;28;66423;-33
2024/02/26 06:35:17;;;;;;;8.10;7.45;;;;;;;33.17;61.52;100906.44;5052576;28;70154;-32
2024/02/26 06:37:50;;;;;;;7.57;7.03;;;;;;;33.20;61.44;100900.53;5056887;28;65592;-31
2024/02/26 06:40:21;;;;;;;6.85;6.35;;;;;;;33.24;61.55;100907.16;5060849;28;70223;-32
2024/02/26 06:42:51;;;;;;;7.85;7.22;;;;;;;33.25;61.28;100895.22;5059339;28;65466;-32
2024/02/26 06:45:22;;;;;;;7.70;7.20;;;;;;;33.27;61.29;100884.94;5059246;28;70172;-32
2024/02/26 06:47:53;;;;;;;7.30;6.80;;;;;;;33.31;61.30;100877.13;5057988;28;67474;-31
2024/02/26 06:50:24;;;;;;;8.40;6.63;;;;;;;33.34;61.12;100879.38;5046774;28;69375;-31
2024/02/26 06:52:54;;;;;;;7.93;6.60;;;;;;;33.27;60.85;100846.88;5064065;28;65211;-31
2024/02/26 06:55:25;;;;;;;8.02;7.22;;;;;;;33.42;61.01;100864.59;5050069;28;69973;-31
2024/02/26 06:57:56;;;;;;;6.63;6.13;;;;;;;33.48;61.08;100863.66;5051162;28;66764;-32
2024/02/26 07:00:26;;;;;;;7.38;6.68;;;;;;;33.52;61.29;100848.53;5048985;28;69627;-32
2024/02/26 07:02:58;;;;;;;6.33;5.93;;;;;;;33.51;60.97;100847.66;5045257;28;66480;-32
2024/02/26 07:05:29;;;;;;;6.15;5.65;;;;;;;33.55;60.67;100831.75;5057165;28;70167;-32
2024/02/26 07:08:00;;;;;;;6.80;6.20;;;;;;;33.60;60.55;100842.75;5051390;28;66329;-31
2024/02/26 07:10:31;;;;;;;10.50;6.73;;;;;;;33.56;60.62;100817.91;5069023;28;71340;-34
2024/02/26 07:13:02;;;;;;;6.60;6.05;;;;;;;33.70;60.70;100829.34;5043657;28;65509;-33
2024/02/26 07:15:33;;;;;;;6.30;5.70;;;;;;;33.74;60.63;100833.25;5046006;28;70169;-31
2024/02/26 07:18:04;;;;;;;6.40;6.00;;;;;;;33.79;60.41;100827.91;5043895;28;66317;-30
2024/02/26 07:20:35;;;;;;;6.78;6.18;;;;;;;33.86;60.26;100832.38;5050481;28;70447;-32
2024/02/26 07:23:06;;;;;;;6.85;6.30;;;;;;;33.88;60.51;100824.78;5066694;27;66703;-32
2024/02/26 07:25:37;;;;;;;6.57;5.97;;;;;;;33.88;60.06;100806.56;5048261;28;69843;-31
2024/02/26 07:28:17;;;;;;;6.20;5.70;;;;;;;33.99;59.96;100815.75;5056628;28;66181;-30
2024/02/26 07:31:07;;;;;;;6.03;5.53;;;;;;;34.00;60.17;100801.06;5049306;28;69999;-31
2024/02/26 07:33:38;;;;;;;6.05;5.43;;;;;;;34.10;59.66;100812.19;5043730;28;66040;-31
2024/02/26 07:36:09;;;;;;;6.38;5.78;;;;;;;34.17;60.09;100803.88;5052629;28;69824;-31
2024/02/26 07:38:40;;;;;;;5.95;5.38;;;;;;;34.23;60.03;100802.88;5058069;28;66567;-33
2024/02/26 07:41:13;;;;;;;5.57;5.18;;;;;;;34.27;59.29;100798.63;5054678;28;70772;-32
2024/02/26 07:43:44;;;;;;;6.40;5.63;;;;;;;34.32;59.55;100792.41;5050831;28;66162;-32
2024/02/26 07:46:15;;;;;;;7.23;5.30;;;;;;;34.35;59.87;100800.94;5066934;28;70249;-32
2024/02/26 07:48:45;;;;;;;5.80;5.20;;;;;;;34.46;59.73;100794.59;5052104;28;66827;-31
2024/02/26 07:51:17;;;;;;;5.65;5.10;;;;;;;34.52;59.16;100792.78;5051076;28;69560;-31
2024/02/26 07:53:47;;;;;;;5.63;5.13;;;;;;;34.59;59.22;100800.81;5035888;28;66520;-32
2024/02/26 07:56:18;;;;;;;5.87;5.37;;;;;;;34.64;59.04;100795.44;5051823;28;70133;-31
2024/02/26 07:58:49;;;;;;;5.13;4.63;;;;;;;34.72;59.30;100791.47;5056800;28;66149;-32
2024/02/26 08:01:19;;;;;;;4.97;4.57;;;;;;;34.79;58.83;100786.66;5045267;28;69992;-31
2024/02/26 08:03:50;;;;;;;6.93;4.70;;;;;;;34.85;58.75;100788.38;5055456;28;66337;-31
2024/02/26 08:06:23;;;;;;;4.68;4.28;;;;;;;34.91;59.21;100785.50;5052649;28;69279;-32
2024/02/26 08:08:55;;;;;;;5.10;4.60;;;;;;;34.97;58.56;100791.84;5043897;28;65601;-33
2024/02/26 08:11:28;;;;;;;4.38;3.97;;;;;;;35.00;58.50;100783.19;5043131;28;70853;-32
2024/02/26 08:13:59;;;;;;;5.03;4.27;;;;;;;35.08;58.39;100780.06;5057707;28;66792;-32
2024/02/26 08:16:30;;;;;;;4.80;4.40;;;;;;;35.16;58.95;100784.25;5055524;27;71349;-32
2024/02/26 08:19:04;;;;;;;4.68;4.25;;;;;;;35.24;58.75;100777.50;5045863;28;65447;-33
2024/02/26 08:21:36;;;;;;;4.40;4.07;;;;;;;35.28;58.29;100768.59;5045661;28;69821;-33
2024/02/26 08:24:07;;;;;;;;;;;;;;;35.28;57.57;100767.75;5047648;27;65926;-32
2024/02/26 08:26:37;;;;;;;4.75;4.25;;;;;;;35.43;58.41;100764.38;5052382;28;70258;-32
2024/02/26 08:29:08;;;;;;;5.53;3.88;;;;;;;35.50;57.83;100773.22;5040317;28;66068;-31
2024/02/26 08:31:38;;;;;;;4.25;3.95;;;;;;;35.55;58.44;100754.16;5046546;28;69873;-31
2024/02/26 08:34:09;;;;;;;4.38;3.97;;;;;;;35.63;57.92;100758.38;5042675;28;66265;-31
2024/02/26 08:36:40;;;;;;;4.60;4.20;;;;;;;35.54;57.98;100739.69;5040883;28;70258;-32
2024/02/26 08:39:13;;;;;;;4.55;4.25;;;;;;;35.74;58.28;100749.22;5054247;28;66233;-32
2024/02/26 08:41:44;;;;;;;6.10;3.80;;;;;;;35.84;57.96;100759.44;5046487;28;70639;-32
2024/02/26 08:44:15;;;;;;;;;;;;;;;35.80;56.27;100754.50;5042633;28;66391;-32
2024/02/26 08:46:45;;;;;;;4.22;3.63;;;;;;;35.96;57.83;100750.00;5045851;28;69576;-31
2024/02/26 08:49:16;;;;;;;4.47;4.07;;;;;;;36.05;57.17;100749.53;5053376;28;65688;-33
2024/02/26 08:51:47;;;;;;;7.90;3.87;;;;;;;36.13;57.00;100749.06;5043181;28;70154;-31
2024/02/26 08:54:18;;;;;;;3.92;3.35;;;;;;;36.18;57.09;100747.22;5046221;28;65622;-32
2024/02/26 08:56:49;;;;;;;4.07;3.67;;;;;;;36.24;57.50;100754.38;5047401;28;70342;-32
2024/02/26 08:59:22;;;;;;;4.22;3.58;;;;;;;36.31;56.83;100743.25;5045951;28;65971;-31
2024/02/26 09:01:53;;;;;;;3.67;3.38;;;;;;;36.39;56.75;100745.50;5052441;28;69163;-31
2024/02/26 09:04:23;;;;;;;3.95;3.65;;;;;;;36.46;56.52;100745.25;5052235;28;66135;-32
2024/02/26 09:06:55;;;;;;;3.75;3.45;;;;;;;36.51;56.48;100741.75;5043512;28;70244;-32
2024/02/26 09:09:26;;;;;;;4.43;3.67;;;;;;;36.59;56.62;100749.50;5045062;28;65621;-32
2024/02/26 09:11:57;;;;;;;6.70;3.60;;;;;;;36.62;56.75;100738.03;5045875;28;70236;-34
2024/02/26 09:14:28;;;;;;;4.50;3.80;;;;;;;36.72;56.20;100742.72;5046500;28;65700;-32
2024/02/26 09:16:58;;;;;;;6.38;2.92;;;;;;;36.77;56.50;100750.97;5046838;28;70192;-32
2024/02/26 09:19:29;;;;;;;3.60;3.30;;;;;;;36.84;56.43;100741.44;5048551;28;65683;-33
2024/02/26 09:22:00;;;;;;;3.80;3.20;;;;;;;36.90;56.43;100739.56;5051440;28;69775;-33
2024/02/26 09:24:31;;;;;;;3.33;3.13;;;;;;;36.96;56.87;100740.41;5055193;28;66418;-32
2024/02/26 09:27:02;;;;;;;3.47;3.17;;;;;;;36.97;56.79;100731.09;5045549;28;69757;-32
2024/02/26 09:29:33;;;;;;;6.10;3.47;;;;;;;37.10;55.78;100749.81;5053777;28;66437;-31
2024/02/26 09:32:04;;;;;;;4.10;3.58;;;;;;;37.16;56.33;100743.25;5054389;28;68642;-31
2024/02/26 09:34:34;;;;;;;4.05;3.25;;;;;;;37.21;56.27;100746.03;5043763;28;65422;-34
2024/02/26 09:37:05;;;;;;;11.23;3.28;;;;;;;37.27;56.15;100750.41;5041147;28;71293;-40
2024/02/26 09:39:49;;;;;;;11.77;3.83;;;;;;;37.23;55.84;100746.59;5042097;27;66692;-31
2024/02/26 09:42:20;;;;;;;4.85;3.85;;;;;;;37.22;56.35;100752.31;5040180;28;70342;-32
2024/02/26 09:44:56;;;;;;;7.20;3.70;;;;;;;37.07;55.94;100729.28;5053066;28;65815;-32
2024/02/26 09:47:31;;;;;;;14.75;4.50;;;;;;;36.94;55.75;100731.66;5052616;28;70051;-31
2024/02/26 09:50:03;;;;;;;9.88;3.85;;;;;;;37.20;56.14;100760.81;5045035;28;65910;-33
2024/02/26 09:52:38;;;;;;;9.02;4.38;;;;;;;37.22;56.84;100753.16;5046524;28;70155;-33
2024/02/26 09:55:11;;;;;;;7.50;4.20;;;;;;;37.27;56.79;100761.34;5050303;28;66455;-32
2024/02/26 09:57:46;;;;;;;21.80;3.83;;;;;;;37.35;56.85;100758.13;5053954;28;68901;-32
2024/02/26 10:00:22;;;;;;;5.25;4.05;;;;;;;37.21;56.49;100732.34;5046796;28;65294;-39
2024/02/26 10:02:56;;;;;;;11.18;4.13;;;;;;;37.32;56.72;100739.50;5070125;28;70129;-33
2024/02/26 10:05:27;;;;;;;5.53;3.78;;;;;;;37.48;56.80;100766.94;5058943;28;65367;-30
2024/02/26 10:08:00;;;;;;;7.93;4.15;;;;;;;37.49;56.91;100765.84;5056084;28;69913;-31
2024/02/26 10:10:33;;;;;;;5.78;4.38;;;;;;;37.55;57.14;100767.50;5056716;28;65547;-32
2024/02/26 10:13:09;;;;;;;4.20;3.78;;;;;;;37.59;56.58;100768.63;5045711;28;69991;-35
2024/02/26 10:15:40;;;;;;;4.05;3.70;;;;;;;37.54;56.77;100752.19;5045868;28;66564;-32
2024/02/26 10:18:11;;;;;;;9.80;4.63;;;;;;;37.54;56.92;100761.22;5052875;28;70621;-33
2024/02/26 10:20:42;;;;;;;4.07;3.67;;;;;;;37.62;57.26;100759.88;5057106;28;66893;-33
2024/02/26 10:23:12;;;;;;;9.95;3.75;;;;;;;37.63;56.69;100769.72;5056835;28;69272;-32
2024/02/26 10:25:56;;;;;;;7.57;4.20;;;;;;;37.54;56.23;100766.69;5058506;28;65699;-31
2024/02/26 10:28:30;;;;;;;4.25;3.85;;;;;;;37.64;56.79;100767.81;5053917;28;70349;-32
2024/02/26 10:31:01;;;;;;;4.68;4.20;;;;;;;37.68;57.30;100772.50;5050436;28;65359;-32
2024/02/26 10:33:37;;;;;;;5.40;4.17;;;;;;;37.56;56.96;100756.31;5056216;28;70557;-31
2024/02/26 10:36:12;;;;;;;6.67;4.03;;;;;;;37.63;56.99;100769.72;5056095;28;66402;-31
2024/02/26 10:38:44;;;;;;;6.15;4.07;;;;;;;37.63;57.18;100761.53;5057861;28;69362;-32
2024/02/26 10:41:15;;;;;;;4.90;4.03;;;;;;;37.60;56.67;100767.53;5049916;28;65995;-32
2024/02/26 10:43:49;;;;;;;6.10;3.90;;;;;;;37.59;57.05;100768.63;5049450;28;69536;-32
2024/02/26 10:46:20;;;;;;;6.93;4.40;;;;;;;37.59;57.28;100771.38;5055472;28;65641;-31
2024/02/26 10:48:52;;;;;;;8.73;4.45;;;;;;;37.57;57.38;100770.81;5052275;28;69757;-33
2024/02/26 10:51:31;;;;;;;5.03;4.07;;;;;;;37.37;57.03;100732.41;5068269;27;65359;-32
2024/02/26 10:54:07;;;;;;;16.45;4.60;;;;;;;37.57;57.58;100770.81;5054906;28;70270;-32
2024/02/26 10:56:43;;;;;;;6.72;5.22;;;;;;;37.52;57.23;100762.59;5058826;28;66184;-32
2024/02/26 10:59:20;;;;;;;12.07;5.88;;;;;;;37.34;57.97;100733.78;5051368;28;69669;-31
2024/02/26 11:01:52;;;;;;;19.17;6.97;;;;;;;37.44;57.83;100754.84;5053099;28;65891;-32
2024/02/26 11:04:25;;;;;;;11.77;6.57;;;;;;;37.35;57.84;100758.13;5045829;28;70197;-34
2024/02/26 11:06:58;;;;;;;14.68;6.38;;;;;;;37.26;58.25;100759.72;5050073;28;67942;-31
2024/02/26 11:09:29;;;;;;;12.85;6.13;;;;;;;37.12;58.35;100769.50;5055034;28;70536;-31
2024/02/26 11:12:01;;;;;;;11.20;6.47;;;;;;;36.95;58.35;100763.38;5042194;28;66497;-32
2024/02/26 11:14:32;;;;;;;8.40;5.32;;;;;;;36.85;59.19;100764.13;5059977;28;70501;-32
2024/02/26 11:17:03;;;;;;;10.47;5.63;;;;;;;36.89;58.80;100768.81;5048221;28;66184;-32
2024/02/26 11:19:36;;;;;;;10.15;6.03;;;;;;;36.59;58.83;100746.75;5057768;28;70810;-32
2024/02/26 11:22:07;;;;;;;9.30;6.30;;;;;;;36.70;59.02;100764.88;5053558;28;65748;-34
2024/02/26 11:24:50;;;;;;;10.23;6.55;;;;;;;36.60;59.43;100778.44;5054708;28;70514;-32
2024/02/26 11:27:29;;;;;;;14.13;7.13;;;;;;;36.18;60.52;100727.28;5061147;28;65389;-33
2024/02/26 11:30:05;;;;;;;16.17;7.10;;;;;;;36.23;60.75;100743.72;5060672;28;69452;-38
2024/02/26 11:32:36;;;;;;;11.40;6.65;;;;;;;36.43;60.70;100779.38;5058966;28;65515;-32
2024/02/26 11:35:10;;;;;;;12.15;6.45;;;;;;;36.36;60.88;100787.00;5061328;28;69579;-32
2024/02/26 11:37:41;;;;;;;11.57;6.88;;;;;;;36.37;60.62;100780.44;5058278;28;66685;-32
2024/02/26 11:40:15;;;;;;;10.55;6.72;;;;;;;36.32;61.01;100791.31;5043983;28;70296;-34